CAL5835 RCTP-VHHH
Flight info
| Callsign | CAL5835 |
|---|---|
| Flight time | N/A |
| Altitude | 34000 |
| Route | CHALI1C CHALI T3 MKG A1 ELATO V522 ABBEY |
| Aircraft | B77L/H-SDE1E2E3FGHIJ2J3J4J5M1RWXY/LB1D1 |
Departure
| Time | 2026-04-30 14:45 |
|---|---|
| Airport | Taiwan Taoyuan International Airport (RCTP) |
Arrival
| Time | N/A |
|---|---|
| Airport | Hong Kong International Airport (VHHH) |
| Time | Latitude | Longitude | Altitude | Speed | Heading |
|---|---|---|---|---|---|
| 2026-04-30 14:12 | 25.08979 | 121.24263 | 105 ft | 0 kts | 139° |
| 2026-04-30 14:34 | 25.08988 | 121.24253 | 105 ft | 2 kts | 139° |
| 2026-04-30 14:34 | 25.09001 | 121.24241 | 103 ft | 2 kts | 139° |
| 2026-04-30 14:34 | 25.09013 | 121.24229 | 104 ft | 2 kts | 139° |
| 2026-04-30 14:34 | 25.09026 | 121.24217 | 105 ft | 2 kts | 139° |
| 2026-04-30 14:35 | 25.09051 | 121.24194 | 106 ft | 2 kts | 154° |
| 2026-04-30 14:35 | 25.09067 | 121.24191 | 104 ft | 2 kts | 200° |
| 2026-04-30 14:35 | 25.09081 | 121.24199 | 104 ft | 2 kts | 222° |
| 2026-04-30 14:36 | 25.09085 | 121.24204 | 103 ft | 0 kts | 226° |
| 2026-04-30 14:38 | 25.09084 | 121.24202 | 103 ft | 2 kts | 226° |
| 2026-04-30 14:38 | 25.09057 | 121.24169 | 105 ft | 11 kts | 228° |
| 2026-04-30 14:38 | 25.08985 | 121.24077 | 108 ft | 21 kts | 230° |
| 2026-04-30 14:39 | 25.08876 | 121.23938 | 106 ft | 26 kts | 229° |
| 2026-04-30 14:39 | 25.08752 | 121.23780 | 108 ft | 28 kts | 229° |
| 2026-04-30 14:39 | 25.08642 | 121.23640 | 106 ft | 23 kts | 229° |
| 2026-04-30 14:40 | 25.08411 | 121.23347 | 108 ft | 28 kts | 229° |
| 2026-04-30 14:40 | 25.08280 | 121.23180 | 107 ft | 31 kts | 229° |
| 2026-04-30 14:40 | 25.08150 | 121.23015 | 105 ft | 13 kts | 229° |
| 2026-04-30 14:40 | 25.08081 | 121.22926 | 105 ft | 17 kts | 230° |
| 2026-04-30 14:41 | 25.08000 | 121.22823 | 107 ft | 20 kts | 229° |
| 2026-04-30 14:41 | 25.07904 | 121.22701 | 108 ft | 22 kts | 229° |
| 2026-04-30 14:41 | 25.07795 | 121.22562 | 106 ft | 25 kts | 229° |
| 2026-04-30 14:41 | 25.07674 | 121.22409 | 106 ft | 28 kts | 229° |
| 2026-04-30 14:42 | 25.07541 | 121.22239 | 107 ft | 30 kts | 229° |
| 2026-04-30 14:42 | 25.07397 | 121.22056 | 107 ft | 33 kts | 229° |
| 2026-04-30 14:42 | 25.07277 | 121.21904 | 108 ft | 22 kts | 229° |
| 2026-04-30 14:42 | 25.07184 | 121.21785 | 106 ft | 14 kts | 234° |
| 2026-04-30 14:43 | 25.07217 | 121.21698 | 108 ft | 12 kts | 320° |
| 2026-04-30 14:43 | 25.07219 | 121.21696 | 108 ft | 0 kts | 320° |
| 2026-04-30 14:43 | 25.07221 | 121.21695 | 109 ft | 3 kts | 320° |
| 2026-04-30 14:44 | 25.07288 | 121.21636 | 106 ft | 14 kts | 334° |
| 2026-04-30 14:44 | 25.07344 | 121.21666 | 107 ft | 10 kts | 47° |
| 2026-04-30 14:44 | 25.07423 | 121.21767 | 106 ft | 32 kts | 49° |
| 2026-04-30 14:44 | 25.07693 | 121.22111 | 106 ft | 94 kts | 49° |
| 2026-04-30 14:45 | 25.08260 | 121.22834 | 106 ft | 154 kts | 50° |
| 2026-04-30 14:45 | 25.09020 | 121.23832 | 416 ft | 172 kts | 48° |
| 2026-04-30 14:45 | 25.09840 | 121.24834 | 1038 ft | 178 kts | 50° |
| 2026-04-30 14:45 | 25.10613 | 121.25834 | 1877 ft | 171 kts | 50° |
| 2026-04-30 14:46 | 25.11430 | 121.26870 | 2421 ft | 188 kts | 50° |
| 2026-04-30 14:46 | 25.12340 | 121.27991 | 2898 ft | 200 kts | 44° |
| 2026-04-30 14:46 | 25.13499 | 121.28938 | 3444 ft | 217 kts | 30° |
| 2026-04-30 14:46 | 25.14440 | 121.29402 | 3685 ft | 233 kts | 17° |
| 2026-04-30 14:47 | 25.16718 | 121.29515 | 4452 ft | 252 kts | 344° |
| 2026-04-30 14:47 | 25.18243 | 121.28580 | 5285 ft | 250 kts | 313° |
| 2026-04-30 14:47 | 25.19354 | 121.27179 | 6158 ft | 252 kts | 303° |
| 2026-04-30 14:47 | 25.20303 | 121.25457 | 6612 ft | 267 kts | 294° |
| 2026-04-30 14:48 | 25.21110 | 121.23651 | 7588 ft | 263 kts | 291° |
| 2026-04-30 14:48 | 25.22054 | 121.21845 | 8205 ft | 274 kts | 304° |
| 2026-04-30 14:48 | 25.23214 | 121.20276 | 9464 ft | 259 kts | 305° |
| 2026-04-30 14:48 | 25.24412 | 121.18698 | 10037 ft | 274 kts | 306° |
| 2026-04-30 14:49 | 25.26858 | 121.15532 | 10660 ft | 309 kts | 298° |
| 2026-04-30 14:49 | 25.27569 | 121.13233 | 10846 ft | 330 kts | 274° |
| 2026-04-30 14:49 | 25.27220 | 121.10675 | 11196 ft | 349 kts | 247° |
| 2026-04-30 14:50 | 25.24151 | 121.06355 | 12569 ft | 367 kts | 230° |
| 2026-04-30 14:50 | 25.22429 | 121.04239 | 13447 ft | 371 kts | 231° |
| 2026-04-30 14:51 | 25.18921 | 121.00005 | 15024 ft | 380 kts | 227° |
| 2026-04-30 14:51 | 25.16989 | 120.97987 | 15770 ft | 385 kts | 226° |
| 2026-04-30 14:51 | 25.13062 | 120.93876 | 17185 ft | 393 kts | 227° |
| 2026-04-30 14:52 | 25.11090 | 120.91765 | 17879 ft | 398 kts | 228° |
| 2026-04-30 14:52 | 25.07093 | 120.87445 | 19111 ft | 406 kts | 228° |
| 2026-04-30 14:52 | 25.05064 | 120.85252 | 19682 ft | 410 kts | 228° |
| 2026-04-30 14:53 | 25.00947 | 120.80807 | 20807 ft | 418 kts | 228° |
| 2026-04-30 14:53 | 24.98859 | 120.78558 | 21368 ft | 422 kts | 228° |
| 2026-04-30 14:54 | 24.94608 | 120.73982 | 22464 ft | 431 kts | 228° |
| 2026-04-30 14:54 | 24.90285 | 120.69335 | 23511 ft | 439 kts | 228° |
| 2026-04-30 14:55 | 24.85879 | 120.64604 | 24442 ft | 445 kts | 228° |
| 2026-04-30 14:55 | 24.83662 | 120.62226 | 24950 ft | 446 kts | 228° |
| 2026-04-30 14:55 | 24.79217 | 120.57460 | 25880 ft | 451 kts | 227° |
| 2026-04-30 14:56 | 24.74696 | 120.52616 | 26765 ft | 457 kts | 227° |
| 2026-04-30 14:56 | 24.69827 | 120.48040 | 27678 ft | 466 kts | 218° |
| 2026-04-30 14:57 | 24.67129 | 120.46047 | 28120 ft | 469 kts | 216° |
| 2026-04-30 14:57 | 24.61627 | 120.42121 | 28981 ft | 474 kts | 217° |
| 2026-04-30 14:58 | 24.56136 | 120.38050 | 29766 ft | 478 kts | 218° |
| 2026-04-30 14:58 | 24.53399 | 120.35979 | 30233 ft | 478 kts | 218° |
| 2026-04-30 14:58 | 24.47949 | 120.31850 | 31251 ft | 473 kts | 218° |
| 2026-04-30 14:59 | 24.42585 | 120.27774 | 32203 ft | 471 kts | 219° |
| 2026-04-30 15:00 | 24.34590 | 120.21562 | 33538 ft | 468 kts | 219° |
| 2026-04-30 15:00 | 24.29271 | 120.17437 | 34056 ft | 470 kts | 219° |
| 2026-04-30 15:01 | 24.23941 | 120.13317 | 34052 ft | 467 kts | 219° |
| 2026-04-30 15:01 | 24.15969 | 120.07164 | 34065 ft | 467 kts | 219° |
| 2026-04-30 15:02 | 24.10648 | 120.03051 | 34059 ft | 468 kts | 219° |
| 2026-04-30 15:03 | 23.97363 | 119.92783 | 34049 ft | 469 kts | 219° |
| 2026-04-30 15:04 | 23.84020 | 119.82515 | 34057 ft | 469 kts | 219° |
| 2026-04-30 15:06 | 23.70650 | 119.72245 | 34060 ft | 470 kts | 219° |
| 2026-04-30 15:07 | 23.60290 | 119.63619 | 34067 ft | 465 kts | 230° |
| 2026-04-30 15:08 | 23.52805 | 119.52299 | 34065 ft | 460 kts | 241° |
| 2026-04-30 15:09 | 23.44336 | 119.37552 | 34049 ft | 461 kts | 240° |
| 2026-04-30 15:10 | 23.37462 | 119.25742 | 34048 ft | 462 kts | 240° |
| 2026-04-30 15:11 | 23.27149 | 119.08070 | 34051 ft | 461 kts | 240° |
| 2026-04-30 15:13 | 23.18540 | 118.93363 | 34052 ft | 460 kts | 240° |